Time;durP1;ratioP1;P1;durP2;ratioP2;P2;SDS_P1;SDS_P2;PMS_P1;PMS_P2;Temp;Humidity;BMP_temperature;BMP_pressure;BME280_temperature;BME280_humidity;BME280_pressure;Samples;Min_cycle;Max_cycle;Signal;HPM_P1;HPM_P2
2023/07/17 18:31:26;;;;;;;23.58;9.80;;;;;;;;;;6223202;22;1563841;-65
2023/07/17 18:33:54;;;;;;;24.42;10.93;;;;;;;;;;6277101;22;20055;-66
2023/07/17 18:36:21;;;;;;;24.63;11.07;;;;;;;;;;6277669;22;20544;-67
2023/07/17 18:38:49;;;;;;;24.90;10.52;;;;;;;;;;6277624;22;20778;-67
2023/07/17 18:41:20;;;;;;;33.60;10.00;;;;;;;;;;6277861;22;20042;-66
2023/07/17 18:43:51;;;;;;;20.60;8.73;;;;;;;;;;6275634;22;20058;-67
2023/07/17 18:46:19;;;;;;;19.13;9.38;;;;;;;;;;6278005;22;20019;-69
2023/07/17 18:48:48;;;;;;;18.27;8.48;;;;;;;;;;6277912;22;20026;-69
2023/07/17 18:51:17;;;;;;;19.83;8.48;;;;;;;;;;6277529;22;20024;-68
2023/07/17 18:53:45;;;;;;;17.63;8.40;;;;;;;;;;6277655;22;20416;-68
2023/07/17 18:56:12;;;;;;;18.17;9.75;;;;;;;;;;6277900;22;20019;-69
2023/07/17 18:58:40;;;;;;;21.05;9.60;;;;;;;;;;6278139;22;20099;-68
2023/07/17 19:01:07;;;;;;;20.05;9.57;;;;;;;;;;6278297;22;20023;-68
2023/07/17 19:03:35;;;;;;;19.83;9.27;;;;;;;;;;6278160;22;20384;-69
2023/07/17 19:06:05;;;;;;;19.38;9.80;;;;;;;;;;6278131;22;20118;-68
2023/07/17 19:08:33;;;;;;;21.58;9.57;;;;;;;;;;6275806;22;20019;-68
2023/07/17 19:11:01;;;;;;;20.27;12.30;;;;;;;;;;6277879;22;20279;-71
2023/07/17 19:13:28;;;;;;;27.08;13.40;;;;;;;;;;6278297;22;20360;-72
2023/07/17 19:15:56;;;;;;;26.30;13.35;;;;;;;;;;6272885;22;20027;-70
2023/07/17 19:18:23;;;;;;;26.23;13.10;;;;;;;;;;6270694;22;20012;-72
2023/07/17 19:20:51;;;;;;;21.77;12.10;;;;;;;;;;6270240;22;20016;-70
2023/07/17 19:23:19;;;;;;;26.00;13.60;;;;;;;;;;6271205;22;20016;-72
2023/07/17 19:25:47;;;;;;;27.20;13.60;;;;;;;;;;6269718;22;20032;-70
2023/07/17 19:28:14;;;;;;;26.75;13.65;;;;;;;;;;6271067;22;20026;-70
2023/07/17 19:30:44;;;;;;;24.73;12.82;;;;;;;;;;6271473;22;20034;-70
2023/07/17 19:33:14;;;;;;;26.08;12.20;;;;;;;;;;6270321;22;20055;-70
2023/07/17 19:35:41;;;;;;;33.10;12.32;;;;;;;;;;6269654;22;20015;-70
2023/07/17 19:38:09;;;;;;;28.25;12.07;;;;;;;;;;6270784;22;20024;-70
2023/07/17 19:40:36;;;;;;;31.52;13.05;;;;;;;;;;6270898;22;20015;-71
2023/07/17 19:43:04;;;;;;;32.40;14.05;;;;;;;;;;6270747;22;20102;-70
2023/07/17 19:45:32;;;;;;;31.08;14.57;;;;;;;;;;6270686;22;20012;-71
2023/07/17 19:48:01;;;;;;;37.35;13.85;;;;;;;;;;6270914;22;20099;-70
2023/07/17 19:50:28;;;;;;;32.40;13.68;;;;;;;;;;6269424;22;20073;-71
2023/07/17 19:52:56;;;;;;;35.67;14.57;;;;;;;;;;6269164;22;20424;-70
2023/07/17 19:55:23;;;;;;;29.42;12.35;;;;;;;;;;6270653;22;20019;-71
2023/07/17 19:57:51;;;;;;;32.20;13.63;;;;;;;;;;6269487;22;20538;-70
2023/07/17 20:00:18;;;;;;;32.65;12.55;;;;;;;;;;6269475;22;20020;-71
2023/07/17 20:02:47;;;;;;;29.08;12.30;;;;;;;;;;6271071;22;20046;-69
2023/07/17 20:05:14;;;;;;;39.83;16.13;;;;;;;;;;6270766;22;20020;-70
2023/07/17 20:07:42;;;;;;;32.33;15.70;;;;;;;;;;6270491;22;20061;-71
2023/07/17 20:10:09;;;;;;;21.50;13.13;;;;;;;;;;6270874;22;20038;-71
2023/07/17 20:12:37;;;;;;;25.10;12.52;;;;;;;;;;6270513;22;20026;-71
2023/07/17 20:15:06;;;;;;;26.85;14.60;;;;;;;;;;6270648;22;20027;-70
2023/07/17 20:17:35;;;;;;;31.02;12.88;;;;;;;;;;6270728;22;20022;-71
2023/07/17 20:20:03;;;;;;;24.40;12.75;;;;;;;;;;6270693;22;20019;-70
2023/07/17 20:22:31;;;;;;;28.42;12.95;;;;;;;;;;6270555;22;20030;-71
2023/07/17 20:24:59;;;;;;;19.48;10.95;;;;;;;;;;6270785;22;20023;-70
2023/07/17 20:27:26;;;;;;;20.17;11.57;;;;;;;;;;6270011;22;20022;-71
2023/07/17 20:29:54;;;;;;;25.85;12.05;;;;;;;;;;6243477;22;20032;-70
2023/07/17 20:32:21;;;;;;;23.02;10.98;;;;;;;;;;6276422;22;20065;-71
2023/07/17 20:34:50;;;;;;;21.00;10.25;;;;;;;;;;6276559;22;20099;-71
2023/07/17 20:37:18;;;;;;;21.88;11.38;;;;;;;;;;6276696;22;20023;-70
2023/07/17 20:39:45;;;;;;;24.08;10.85;;;;;;;;;;6276683;22;20067;-70
2023/07/17 20:42:46;;;;;;;22.02;10.63;;;;;;;;;;6276726;22;20046;-70
2023/07/17 20:45:01;;;;;;;27.90;10.10;;;;;;;;;;6276921;22;20023;-71
2023/07/17 20:47:29;;;;;;;24.83;10.82;;;;;;;;;;6276679;22;20008;-71
2023/07/17 20:49:57;;;;;;;28.50;10.43;;;;;;;;;;6274860;22;20515;-71
2023/07/17 20:52:24;;;;;;;22.20;9.23;;;;;;;;;;6276521;22;20015;-69
2023/07/17 20:54:52;;;;;;;21.40;10.77;;;;;;;;;;6276303;22;20058;-70
2023/07/17 20:57:19;;;;;;;25.35;10.63;;;;;;;;;;6276555;22;20065;-72
2023/07/17 20:59:47;;;;;;;22.60;10.95;;;;;;;;;;6275125;22;20025;-69
2023/07/17 21:02:15;;;;;;;21.95;10.30;;;;;;;;;;6276412;22;20074;-70
2023/07/17 21:04:42;;;;;;;28.13;9.68;;;;;;;;;;6276518;22;20445;-69
2023/07/17 21:07:10;;;;;;;17.60;9.85;;;;;;;;;;6276408;22;20061;-71
2023/07/17 21:09:38;;;;;;;26.50;11.13;;;;;;;;;;6274934;22;20027;-71
2023/07/17 21:12:05;;;;;;;20.42;10.43;;;;;;;;;;6276344;22;20452;-70
2023/07/17 21:14:33;;;;;;;20.45;10.43;;;;;;;;;;6274642;22;20363;-71
2023/07/17 21:17:01;;;;;;;22.70;10.50;;;;;;;;;;6276385;22;20050;-70
2023/07/17 21:19:28;;;;;;;21.75;10.35;;;;;;;;;;6276244;22;20022;-71
2023/07/17 21:21:56;;;;;;;20.58;10.38;;;;;;;;;;6276343;22;20086;-70
2023/07/17 21:24:24;;;;;;;16.85;10.27;;;;;;;;;;6276443;22;20069;-71
2023/07/17 21:26:51;;;;;;;19.10;9.27;;;;;;;;;;6276245;22;20042;-70
2023/07/17 21:29:18;;;;;;;20.50;8.80;;;;;;;;;;6276131;22;20065;-70
2023/07/17 21:31:46;;;;;;;15.63;8.70;;;;;;;;;;6276057;22;20163;-70
2023/07/17 21:34:14;;;;;;;18.67;8.48;;;;;;;;;;6276172;22;20505;-70
2023/07/17 21:36:41;;;;;;;16.60;8.50;;;;;;;;;;6276203;22;20402;-70
2023/07/17 21:39:08;;;;;;;14.07;8.52;;;;;;;;;;6275959;22;20023;-69
2023/07/17 21:41:36;;;;;;;18.45;8.90;;;;;;;;;;6276169;22;20016;-70
2023/07/17 21:44:04;;;;;;;13.70;8.40;;;;;;;;;;6276335;22;20441;-70
2023/07/17 21:46:31;;;;;;;12.00;8.55;;;;;;;;;;6278288;22;20782;-71
2023/07/17 21:48:59;;;;;;;12.07;8.60;;;;;;;;;;6277122;22;20034;-69
2023/07/17 21:51:26;;;;;;;18.55;9.02;;;;;;;;;;6276058;22;20082;-70
2023/07/17 21:53:53;;;;;;;13.60;8.73;;;;;;;;;;6276111;22;20073;-69
2023/07/17 21:56:21;;;;;;;17.42;9.00;;;;;;;;;;6276081;22;20102;-69
2023/07/17 21:58:48;;;;;;;18.35;8.80;;;;;;;;;;6275975;22;20023;-70
2023/07/17 22:01:16;;;;;;;14.88;8.45;;;;;;;;;;6276480;22;20035;-70
2023/07/17 22:03:44;;;;;;;13.18;9.18;;;;;;;;;;6274381;22;20405;-70
2023/07/17 22:06:11;;;;;;;15.15;9.30;;;;;;;;;;6276120;22;20020;-69
2023/07/17 22:08:39;;;;;;;15.43;8.82;;;;;;;;;;6276148;22;20019;-70
2023/07/17 22:11:06;;;;;;;13.70;8.90;;;;;;;;;;6276008;22;20019;-69
2023/07/17 22:13:35;;;;;;;16.95;8.70;;;;;;;;;;6276430;22;20016;-69
2023/07/17 22:16:03;;;;;;;14.10;8.88;;;;;;;;;;6275938;22;20016;-69
2023/07/17 22:18:31;;;;;;;14.57;8.75;;;;;;;;;;6275791;22;20012;-69
2023/07/17 22:20:59;;;;;;;16.92;9.50;;;;;;;;;;6274601;22;20095;-69
2023/07/17 22:23:26;;;;;;;14.73;8.63;;;;;;;;;;6276093;22;20016;-70
2023/07/17 22:25:54;;;;;;;15.18;9.05;;;;;;;;;;6275878;22;20050;-70
2023/07/17 22:28:22;;;;;;;21.85;9.40;;;;;;;;;;6276290;22;20034;-70
2023/07/17 22:30:49;;;;;;;19.40;9.23;;;;;;;;;;6275958;22;20038;-70
2023/07/17 22:33:17;;;;;;;19.38;9.48;;;;;;;;;;6275756;22;20012;-70
2023/07/17 22:35:44;;;;;;;21.05;9.27;;;;;;;;;;6275864;22;20016;-69
2023/07/17 22:38:12;;;;;;;19.83;9.32;;;;;;;;;;6275927;22;20015;-69
2023/07/17 22:40:39;;;;;;;19.25;8.73;;;;;;;;;;6275907;22;20016;-69
2023/07/17 22:43:07;;;;;;;16.42;9.15;;;;;;;;;;6275818;22;20012;-69
2023/07/17 22:45:34;;;;;;;18.52;9.60;;;;;;;;;;6276213;22;20050;-69
2023/07/17 22:48:02;;;;;;;20.52;9.40;;;;;;;;;;6275668;22;20018;-69
2023/07/17 22:50:29;;;;;;;20.50;10.02;;;;;;;;;;6276315;22;20016;-69
2023/07/17 22:52:57;;;;;;;13.55;9.25;;;;;;;;;;6277791;22;20018;-69
2023/07/17 22:55:24;;;;;;;17.98;9.30;;;;;;;;;;6278058;22;20364;-69
2023/07/17 22:57:51;;;;;;;18.00;9.25;;;;;;;;;;6277632;22;20451;-69
2023/07/17 23:00:19;;;;;;;16.27;9.40;;;;;;;;;;6277705;22;20015;-69
2023/07/17 23:02:47;;;;;;;16.65;9.40;;;;;;;;;;6277622;22;20036;-69
2023/07/17 23:05:15;;;;;;;17.23;9.20;;;;;;;;;;6277695;22;20025;-69
2023/07/17 23:07:42;;;;;;;17.40;9.27;;;;;;;;;;6276314;22;20066;-69
2023/07/17 23:10:10;;;;;;;14.77;9.15;;;;;;;;;;6277706;22;20061;-69
2023/07/17 23:12:40;;;;;;;14.95;8.90;;;;;;;;;;6277852;22;20031;-69
2023/07/17 23:15:09;;;;;;;16.38;9.52;;;;;;;;;;6277460;22;20401;-69
2023/07/17 23:17:37;;;;;;;16.85;9.32;;;;;;;;;;6277601;22;20468;-69
2023/07/17 23:20:05;;;;;;;13.27;8.68;;;;;;;;;;6277612;22;20062;-69
2023/07/17 23:22:33;;;;;;;18.10;9.65;;;;;;;;;;6277347;22;20421;-69
2023/07/17 23:25:00;;;;;;;13.85;8.80;;;;;;;;;;6277453;22;20446;-69
2023/07/17 23:27:28;;;;;;;12.32;8.25;;;;;;;;;;6275868;22;20024;-69
2023/07/17 23:29:57;;;;;;;12.70;8.75;;;;;;;;;;6277443;22;20091;-69
2023/07/17 23:32:25;;;;;;;12.98;9.60;;;;;;;;;;6277277;22;20016;-69
2023/07/17 23:34:53;;;;;;;12.93;8.65;;;;;;;;;;6277255;22;20019;-69
2023/07/17 23:37:21;;;;;;;16.73;9.07;;;;;;;;;;6277717;22;20020;-69
2023/07/17 23:39:48;;;;;;;14.00;8.90;;;;;;;;;;6277437;22;20015;-69
2023/07/17 23:42:16;;;;;;;12.00;8.57;;;;;;;;;;6277413;22;20442;-69
2023/07/17 23:44:44;;;;;;;14.60;8.82;;;;;;;;;;6277190;22;20082;-69
2023/07/17 23:47:11;;;;;;;14.48;8.45;;;;;;;;;;6277278;22;20023;-69
2023/07/17 23:49:39;;;;;;;15.80;9.00;;;;;;;;;;6275613;22;20089;-70
2023/07/17 23:52:07;;;;;;;16.75;8.40;;;;;;;;;;6277230;22;20019;-69
2023/07/17 23:54:34;;;;;;;16.25;8.55;;;;;;;;;;6277200;22;20016;-69
2023/07/17 23:57:02;;;;;;;11.25;8.48;;;;;;;;;;6277116;22;20020;-69
2023/07/17 23:59:29;;;;;;;12.00;8.73;;;;;;;;;;6276828;22;20018;-70
